sensor_id;sensor_type;location;lat;lon;timestamp;temperature;humidity
27544;DHT22;17996;51.056;3.656;2024-01-15T00:00:05;3.80;99.90
27544;DHT22;17996;51.056;3.656;2024-01-15T00:02:34;3.80;99.90
27544;DHT22;17996;51.056;3.656;2024-01-15T00:04:59;3.90;99.90
27544;DHT22;17996;51.056;3.656;2024-01-15T00:07:25;3.90;99.90
27544;DHT22;17996;51.056;3.656;2024-01-15T00:09:52;3.90;99.90
27544;DHT22;17996;51.056;3.656;2024-01-15T00:12:18;3.80;99.90
27544;DHT22;17996;51.056;3.656;2024-01-15T00:14:44;3.80;99.90
27544;DHT22;17996;51.056;3.656;2024-01-15T00:17:11;3.80;99.90
27544;DHT22;17996;51.056;3.656;2024-01-15T00:19:38;3.90;99.90
27544;DHT22;17996;51.056;3.656;2024-01-15T00:22:04;3.90;99.90
27544;DHT22;17996;51.056;3.656;2024-01-15T00:24:32;3.90;99.90
27544;DHT22;17996;51.056;3.656;2024-01-15T00:27:00;3.90;99.90
27544;DHT22;17996;51.056;3.656;2024-01-15T00:29:26;4.00;99.90
27544;DHT22;17996;51.056;3.656;2024-01-15T00:31:53;4.00;99.90
27544;DHT22;17996;51.056;3.656;2024-01-15T00:34:19;4.10;99.90
27544;DHT22;17996;51.056;3.656;2024-01-15T00:36:46;4.00;99.90
27544;DHT22;17996;51.056;3.656;2024-01-15T00:39:12;4.00;99.90
27544;DHT22;17996;51.056;3.656;2024-01-15T00:41:39;4.10;99.90
27544;DHT22;17996;51.056;3.656;2024-01-15T00:44:04;4.10;99.90
27544;DHT22;17996;51.056;3.656;2024-01-15T00:46:32;4.10;99.90
27544;DHT22;17996;51.056;3.656;2024-01-15T00:48:58;4.10;99.90
27544;DHT22;17996;51.056;3.656;2024-01-15T00:51:24;4.10;99.90
27544;DHT22;17996;51.056;3.656;2024-01-15T00:53:50;4.00;99.90
27544;DHT22;17996;51.056;3.656;2024-01-15T00:56:16;4.00;99.90
27544;DHT22;17996;51.056;3.656;2024-01-15T00:58:43;4.00;99.90
27544;DHT22;17996;51.056;3.656;2024-01-15T01:01:08;4.00;99.90
27544;DHT22;17996;51.056;3.656;2024-01-15T01:03:34;4.00;99.90
27544;DHT22;17996;51.056;3.656;2024-01-15T01:06:01;4.00;99.90
27544;DHT22;17996;51.056;3.656;2024-01-15T01:08:27;4.00;99.90
27544;DHT22;17996;51.056;3.656;2024-01-15T01:10:52;4.00;99.90
27544;DHT22;17996;51.056;3.656;2024-01-15T01:13:18;4.00;99.90
27544;DHT22;17996;51.056;3.656;2024-01-15T01:15:45;4.00;99.90
27544;DHT22;17996;51.056;3.656;2024-01-15T01:18:12;4.00;99.90
27544;DHT22;17996;51.056;3.656;2024-01-15T01:20:40;4.00;99.90
27544;DHT22;17996;51.056;3.656;2024-01-15T01:23:06;4.10;99.90
27544;DHT22;17996;51.056;3.656;2024-01-15T01:25:32;4.10;99.90
27544;DHT22;17996;51.056;3.656;2024-01-15T01:27:57;4.10;99.90
27544;DHT22;17996;51.056;3.656;2024-01-15T01:30:23;4.00;99.90
27544;DHT22;17996;51.056;3.656;2024-01-15T01:32:49;4.00;99.90
27544;DHT22;17996;51.056;3.656;2024-01-15T01:35:15;4.10;99.90
27544;DHT22;17996;51.056;3.656;2024-01-15T01:37:40;4.10;99.90
27544;DHT22;17996;51.056;3.656;2024-01-15T01:40:06;4.10;99.90
27544;DHT22;17996;51.056;3.656;2024-01-15T01:42:32;4.10;99.90
27544;DHT22;17996;51.056;3.656;2024-01-15T01:44:58;4.00;99.90
27544;DHT22;17996;51.056;3.656;2024-01-15T01:47:24;4.10;99.90
27544;DHT22;17996;51.056;3.656;2024-01-15T01:49:53;4.10;99.90
27544;DHT22;17996;51.056;3.656;2024-01-15T01:52:20;4.10;99.90
27544;DHT22;17996;51.056;3.656;2024-01-15T01:54:47;4.10;99.90
27544;DHT22;17996;51.056;3.656;2024-01-15T01:57:15;4.10;99.90
27544;DHT22;17996;51.056;3.656;2024-01-15T01:59:42;4.10;99.90
27544;DHT22;17996;51.056;3.656;2024-01-15T02:02:09;4.10;99.90
27544;DHT22;17996;51.056;3.656;2024-01-15T02:04:36;4.10;99.90
27544;DHT22;17996;51.056;3.656;2024-01-15T02:07:02;4.20;99.90
27544;DHT22;17996;51.056;3.656;2024-01-15T02:09:29;4.20;99.90
27544;DHT22;17996;51.056;3.656;2024-01-15T02:11:57;4.20;99.90
27544;DHT22;17996;51.056;3.656;2024-01-15T02:14:24;4.20;99.90
27544;DHT22;17996;51.056;3.656;2024-01-15T02:16:50;4.10;99.90
27544;DHT22;17996;51.056;3.656;2024-01-15T02:19:17;4.10;99.90
27544;DHT22;17996;51.056;3.656;2024-01-15T02:21:43;4.10;99.90
27544;DHT22;17996;51.056;3.656;2024-01-15T02:24:09;4.20;99.90
27544;DHT22;17996;51.056;3.656;2024-01-15T02:26:34;4.10;99.90
27544;DHT22;17996;51.056;3.656;2024-01-15T02:29:02;4.20;99.90
27544;DHT22;17996;51.056;3.656;2024-01-15T02:31:28;4.10;99.90
27544;DHT22;17996;51.056;3.656;2024-01-15T02:33:54;4.10;99.90
27544;DHT22;17996;51.056;3.656;2024-01-15T02:36:22;4.10;99.90
27544;DHT22;17996;51.056;3.656;2024-01-15T02:38:50;4.10;99.90
27544;DHT22;17996;51.056;3.656;2024-01-15T02:41:16;4.10;99.90
27544;DHT22;17996;51.056;3.656;2024-01-15T02:43:42;4.10;99.90
27544;DHT22;17996;51.056;3.656;2024-01-15T02:46:09;4.20;99.90
27544;DHT22;17996;51.056;3.656;2024-01-15T02:48:36;4.20;99.90
27544;DHT22;17996;51.056;3.656;2024-01-15T02:51:03;4.20;99.90
27544;DHT22;17996;51.056;3.656;2024-01-15T02:53:29;4.20;99.90
27544;DHT22;17996;51.056;3.656;2024-01-15T02:55:55;4.20;99.90
27544;DHT22;17996;51.056;3.656;2024-01-15T02:58:21;4.20;99.90
27544;DHT22;17996;51.056;3.656;2024-01-15T03:00:48;4.20;99.90
27544;DHT22;17996;51.056;3.656;2024-01-15T03:03:14;4.30;99.90
27544;DHT22;17996;51.056;3.656;2024-01-15T03:05:41;4.20;99.90
27544;DHT22;17996;51.056;3.656;2024-01-15T03:08:06;4.20;99.90
27544;DHT22;17996;51.056;3.656;2024-01-15T03:10:32;4.20;99.90
27544;DHT22;17996;51.056;3.656;2024-01-15T03:12:59;4.30;99.90
27544;DHT22;17996;51.056;3.656;2024-01-15T03:15:25;4.30;99.90
27544;DHT22;17996;51.056;3.656;2024-01-15T03:17:50;4.30;99.90
27544;DHT22;17996;51.056;3.656;2024-01-15T03:20:19;4.30;99.90
27544;DHT22;17996;51.056;3.656;2024-01-15T03:22:45;4.30;99.90
27544;DHT22;17996;51.056;3.656;2024-01-15T03:25:10;4.30;99.90
27544;DHT22;17996;51.056;3.656;2024-01-15T03:27:37;4.30;99.90
27544;DHT22;17996;51.056;3.656;2024-01-15T03:30:03;4.30;99.90
27544;DHT22;17996;51.056;3.656;2024-01-15T03:32:31;4.40;99.90
27544;DHT22;17996;51.056;3.656;2024-01-15T03:34:58;4.40;99.90
27544;DHT22;17996;51.056;3.656;2024-01-15T03:37:23;4.40;99.90
27544;DHT22;17996;51.056;3.656;2024-01-15T03:39:49;4.30;99.90
27544;DHT22;17996;51.056;3.656;2024-01-15T03:42:15;4.30;99.90
27544;DHT22;17996;51.056;3.656;2024-01-15T03:44:43;4.30;99.90
27544;DHT22;17996;51.056;3.656;2024-01-15T03:47:09;4.30;99.90
27544;DHT22;17996;51.056;3.656;2024-01-15T03:49:35;4.30;99.90
27544;DHT22;17996;51.056;3.656;2024-01-15T03:52:01;4.30;99.90
27544;DHT22;17996;51.056;3.656;2024-01-15T03:54:27;4.30;99.90
27544;DHT22;17996;51.056;3.656;2024-01-15T03:56:53;4.30;99.90
27544;DHT22;17996;51.056;3.656;2024-01-15T03:59:19;4.40;99.90
27544;DHT22;17996;51.056;3.656;2024-01-15T04:01:49;4.40;99.90
27544;DHT22;17996;51.056;3.656;2024-01-15T04:04:19;4.40;99.90
27544;DHT22;17996;51.056;3.656;2024-01-15T04:06:44;4.30;99.90
27544;DHT22;17996;51.056;3.656;2024-01-15T04:09:13;4.30;99.90
27544;DHT22;17996;51.056;3.656;2024-01-15T04:11:40;4.30;99.90
27544;DHT22;17996;51.056;3.656;2024-01-15T04:14:06;4.30;99.90
27544;DHT22;17996;51.056;3.656;2024-01-15T04:16:32;4.30;99.90
27544;DHT22;17996;51.056;3.656;2024-01-15T04:18:57;4.20;99.90
27544;DHT22;17996;51.056;3.656;2024-01-15T04:21:23;4.20;99.90
27544;DHT22;17996;51.056;3.656;2024-01-15T04:23:49;4.30;99.90
27544;DHT22;17996;51.056;3.656;2024-01-15T04:26:17;4.20;99.90
27544;DHT22;17996;51.056;3.656;2024-01-15T04:28:43;4.30;99.90
27544;DHT22;17996;51.056;3.656;2024-01-15T04:31:08;4.30;99.90
27544;DHT22;17996;51.056;3.656;2024-01-15T04:33:35;4.30;99.90
27544;DHT22;17996;51.056;3.656;2024-01-15T04:36:04;4.30;99.90
27544;DHT22;17996;51.056;3.656;2024-01-15T04:38:30;4.20;99.90
27544;DHT22;17996;51.056;3.656;2024-01-15T04:40:57;4.30;99.90
27544;DHT22;17996;51.056;3.656;2024-01-15T04:43:23;4.20;99.90
27544;DHT22;17996;51.056;3.656;2024-01-15T04:45:49;4.10;99.90
27544;DHT22;17996;51.056;3.656;2024-01-15T04:48:15;4.10;99.90
27544;DHT22;17996;51.056;3.656;2024-01-15T04:50:41;4.10;99.90
27544;DHT22;17996;51.056;3.656;2024-01-15T04:53:07;4.10;99.90
27544;DHT22;17996;51.056;3.656;2024-01-15T04:55:34;4.00;99.90
27544;DHT22;17996;51.056;3.656;2024-01-15T04:57:59;4.00;99.90
27544;DHT22;17996;51.056;3.656;2024-01-15T05:00:25;4.10;99.90
27544;DHT22;17996;51.056;3.656;2024-01-15T05:02:53;4.00;99.90
27544;DHT22;17996;51.056;3.656;2024-01-15T05:05:20;4.00;99.90
27544;DHT22;17996;51.056;3.656;2024-01-15T05:07:45;4.00;99.90
27544;DHT22;17996;51.056;3.656;2024-01-15T05:10:14;4.00;99.90
27544;DHT22;17996;51.056;3.656;2024-01-15T05:12:40;3.90;99.90
27544;DHT22;17996;51.056;3.656;2024-01-15T05:15:05;3.90;99.90
27544;DHT22;17996;51.056;3.656;2024-01-15T05:17:32;3.90;99.90
27544;DHT22;17996;51.056;3.656;2024-01-15T05:19:58;3.90;99.90
27544;DHT22;17996;51.056;3.656;2024-01-15T05:22:25;3.80;99.90
27544;DHT22;17996;51.056;3.656;2024-01-15T05:24:52;3.80;99.90
27544;DHT22;17996;51.056;3.656;2024-01-15T05:27:17;3.70;99.90
27544;DHT22;17996;51.056;3.656;2024-01-15T05:29:45;3.70;99.90
27544;DHT22;17996;51.056;3.656;2024-01-15T05:32:11;3.70;99.90
27544;DHT22;17996;51.056;3.656;2024-01-15T05:34:37;3.60;99.90
27544;DHT22;17996;51.056;3.656;2024-01-15T05:37:02;3.60;99.90
27544;DHT22;17996;51.056;3.656;2024-01-15T05:39:29;3.60;99.90
27544;DHT22;17996;51.056;3.656;2024-01-15T05:41:58;3.50;99.90
27544;DHT22;17996;51.056;3.656;2024-01-15T05:44:25;3.50;99.90
27544;DHT22;17996;51.056;3.656;2024-01-15T05:46:51;3.50;99.90
27544;DHT22;17996;51.056;3.656;2024-01-15T05:49:18;3.50;99.90
27544;DHT22;17996;51.056;3.656;2024-01-15T05:51:44;3.50;99.90
27544;DHT22;17996;51.056;3.656;2024-01-15T05:54:10;3.40;99.90
27544;DHT22;17996;51.056;3.656;2024-01-15T05:56:36;3.50;99.90
27544;DHT22;17996;51.056;3.656;2024-01-15T05:59:02;3.50;99.90
27544;DHT22;17996;51.056;3.656;2024-01-15T06:01:29;3.50;99.90
27544;DHT22;17996;51.056;3.656;2024-01-15T06:03:55;3.40;99.90
27544;DHT22;17996;51.056;3.656;2024-01-15T06:06:22;3.40;99.90
27544;DHT22;17996;51.056;3.656;2024-01-15T06:08:48;3.40;99.90
27544;DHT22;17996;51.056;3.656;2024-01-15T06:11:14;3.40;99.90
27544;DHT22;17996;51.056;3.656;2024-01-15T06:13:40;3.40;99.90
27544;DHT22;17996;51.056;3.656;2024-01-15T06:16:15;3.30;99.90
27544;DHT22;17996;51.056;3.656;2024-01-15T06:18:43;3.30;99.90
27544;DHT22;17996;51.056;3.656;2024-01-15T06:21:11;3.20;99.90
27544;DHT22;17996;51.056;3.656;2024-01-15T06:23:40;3.20;99.90
27544;DHT22;17996;51.056;3.656;2024-01-15T06:26:06;3.20;99.90
27544;DHT22;17996;51.056;3.656;2024-01-15T06:28:31;3.20;99.90
27544;DHT22;17996;51.056;3.656;2024-01-15T06:30:57;3.20;99.90
27544;DHT22;17996;51.056;3.656;2024-01-15T06:33:24;3.20;99.90
27544;DHT22;17996;51.056;3.656;2024-01-15T06:35:51;3.20;99.90
27544;DHT22;17996;51.056;3.656;2024-01-15T06:38:16;3.20;99.90
27544;DHT22;17996;51.056;3.656;2024-01-15T06:40:42;3.20;99.90
27544;DHT22;17996;51.056;3.656;2024-01-15T06:43:14;3.20;99.90
27544;DHT22;17996;51.056;3.656;2024-01-15T06:45:42;3.20;99.90
27544;DHT22;17996;51.056;3.656;2024-01-15T06:48:08;3.10;99.90
27544;DHT22;17996;51.056;3.656;2024-01-15T06:50:33;3.10;99.90
27544;DHT22;17996;51.056;3.656;2024-01-15T06:52:59;3.10;99.90
27544;DHT22;17996;51.056;3.656;2024-01-15T06:55:26;3.10;99.90
27544;DHT22;17996;51.056;3.656;2024-01-15T06:57:54;3.10;99.90
27544;DHT22;17996;51.056;3.656;2024-01-15T07:00:20;3.10;99.90
27544;DHT22;17996;51.056;3.656;2024-01-15T07:02:46;3.00;99.90
27544;DHT22;17996;51.056;3.656;2024-01-15T07:05:13;3.00;99.90
27544;DHT22;17996;51.056;3.656;2024-01-15T07:07:39;3.00;99.90
27544;DHT22;17996;51.056;3.656;2024-01-15T07:10:07;3.00;99.90
27544;DHT22;17996;51.056;3.656;2024-01-15T07:12:33;3.00;99.90
27544;DHT22;17996;51.056;3.656;2024-01-15T07:15:00;3.00;99.90
27544;DHT22;17996;51.056;3.656;2024-01-15T07:17:27;3.10;99.90
27544;DHT22;17996;51.056;3.656;2024-01-15T07:19:53;3.10;99.90
27544;DHT22;17996;51.056;3.656;2024-01-15T07:22:20;3.10;99.90
27544;DHT22;17996;51.056;3.656;2024-01-15T07:24:49;3.10;99.90
27544;DHT22;17996;51.056;3.656;2024-01-15T07:27:15;3.20;99.90
27544;DHT22;17996;51.056;3.656;2024-01-15T07:29:40;3.10;99.90
27544;DHT22;17996;51.056;3.656;2024-01-15T07:32:06;3.10;99.90
27544;DHT22;17996;51.056;3.656;2024-01-15T07:34:33;3.10;99.90
27544;DHT22;17996;51.056;3.656;2024-01-15T07:36:58;3.10;99.90
27544;DHT22;17996;51.056;3.656;2024-01-15T07:39:24;3.10;99.90
27544;DHT22;17996;51.056;3.656;2024-01-15T07:41:51;3.10;99.90
27544;DHT22;17996;51.056;3.656;2024-01-15T07:44:17;3.10;99.90
27544;DHT22;17996;51.056;3.656;2024-01-15T07:46:46;3.10;99.90
27544;DHT22;17996;51.056;3.656;2024-01-15T07:49:12;3.10;99.90
27544;DHT22;17996;51.056;3.656;2024-01-15T07:51:38;3.10;99.90
27544;DHT22;17996;51.056;3.656;2024-01-15T07:54:09;3.10;99.90
27544;DHT22;17996;51.056;3.656;2024-01-15T07:56:53;3.10;99.90
27544;DHT22;17996;51.056;3.656;2024-01-15T07:59:21;3.10;99.90
27544;DHT22;17996;51.056;3.656;2024-01-15T08:01:47;3.10;99.90
27544;DHT22;17996;51.056;3.656;2024-01-15T08:04:13;3.20;99.90
27544;DHT22;17996;51.056;3.656;2024-01-15T08:06:39;3.20;99.90
27544;DHT22;17996;51.056;3.656;2024-01-15T08:09:05;3.20;99.90
27544;DHT22;17996;51.056;3.656;2024-01-15T08:11:31;3.30;99.90
27544;DHT22;17996;51.056;3.656;2024-01-15T08:13:57;3.30;99.90
27544;DHT22;17996;51.056;3.656;2024-01-15T08:16:24;3.30;99.90
27544;DHT22;17996;51.056;3.656;2024-01-15T08:18:51;3.30;99.90
27544;DHT22;17996;51.056;3.656;2024-01-15T08:21:17;3.30;99.90
27544;DHT22;17996;51.056;3.656;2024-01-15T08:23:46;3.30;99.90
27544;DHT22;17996;51.056;3.656;2024-01-15T08:26:12;3.40;99.90
27544;DHT22;17996;51.056;3.656;2024-01-15T08:28:38;3.40;99.90
27544;DHT22;17996;51.056;3.656;2024-01-15T08:31:04;3.40;99.90
27544;DHT22;17996;51.056;3.656;2024-01-15T08:33:32;3.30;99.90
27544;DHT22;17996;51.056;3.656;2024-01-15T08:35:59;3.40;99.90
27544;DHT22;17996;51.056;3.656;2024-01-15T08:38:26;3.40;99.90
27544;DHT22;17996;51.056;3.656;2024-01-15T08:40:52;3.40;99.90
27544;DHT22;17996;51.056;3.656;2024-01-15T08:43:20;3.30;99.90
27544;DHT22;17996;51.056;3.656;2024-01-15T08:45:45;3.40;99.90
27544;DHT22;17996;51.056;3.656;2024-01-15T08:48:13;3.30;99.90
27544;DHT22;17996;51.056;3.656;2024-01-15T08:50:38;3.40;99.90
27544;DHT22;17996;51.056;3.656;2024-01-15T08:53:04;3.40;99.90
27544;DHT22;17996;51.056;3.656;2024-01-15T08:55:30;3.40;99.90
27544;DHT22;17996;51.056;3.656;2024-01-15T08:57:55;3.40;99.90
27544;DHT22;17996;51.056;3.656;2024-01-15T09:00:21;3.50;99.90
27544;DHT22;17996;51.056;3.656;2024-01-15T09:02:47;3.50;99.90
27544;DHT22;17996;51.056;3.656;2024-01-15T09:05:13;3.50;99.90
27544;DHT22;17996;51.056;3.656;2024-01-15T09:07:38;3.50;99.90
27544;DHT22;17996;51.056;3.656;2024-01-15T09:10:04;3.50;99.90
27544;DHT22;17996;51.056;3.656;2024-01-15T09:12:31;3.50;99.90
27544;DHT22;17996;51.056;3.656;2024-01-15T09:14:57;3.50;99.90
27544;DHT22;17996;51.056;3.656;2024-01-15T09:17:24;3.60;99.90
27544;DHT22;17996;51.056;3.656;2024-01-15T09:19:50;3.60;99.90
27544;DHT22;17996;51.056;3.656;2024-01-15T09:22:16;3.70;99.90
27544;DHT22;17996;51.056;3.656;2024-01-15T09:24:47;3.70;99.90
27544;DHT22;17996;51.056;3.656;2024-01-15T09:27:13;3.70;99.90
27544;DHT22;17996;51.056;3.656;2024-01-15T09:29:40;3.80;99.90
27544;DHT22;17996;51.056;3.656;2024-01-15T09:32:08;3.90;99.90
27544;DHT22;17996;51.056;3.656;2024-01-15T09:34:35;4.00;99.90
27544;DHT22;17996;51.056;3.656;2024-01-15T09:37:01;4.10;99.90
27544;DHT22;17996;51.056;3.656;2024-01-15T09:39:27;4.20;99.90
27544;DHT22;17996;51.056;3.656;2024-01-15T09:41:54;4.30;99.90
27544;DHT22;17996;51.056;3.656;2024-01-15T09:44:22;4.30;99.90
27544;DHT22;17996;51.056;3.656;2024-01-15T09:46:49;4.30;99.90
27544;DHT22;17996;51.056;3.656;2024-01-15T09:49:17;4.20;99.90
27544;DHT22;17996;51.056;3.656;2024-01-15T09:51:43;4.10;99.90
27544;DHT22;17996;51.056;3.656;2024-01-15T09:54:09;4.20;99.90
27544;DHT22;17996;51.056;3.656;2024-01-15T09:56:36;4.20;99.90
27544;DHT22;17996;51.056;3.656;2024-01-15T09:59:04;4.20;99.90
27544;DHT22;17996;51.056;3.656;2024-01-15T10:01:32;4.20;99.90
27544;DHT22;17996;51.056;3.656;2024-01-15T10:03:58;4.10;99.90
27544;DHT22;17996;51.056;3.656;2024-01-15T10:06:27;4.10;99.90
27544;DHT22;17996;51.056;3.656;2024-01-15T10:08:57;4.10;99.90
27544;DHT22;17996;51.056;3.656;2024-01-15T10:11:24;4.20;99.90
27544;DHT22;17996;51.056;3.656;2024-01-15T10:13:49;4.20;99.90
27544;DHT22;17996;51.056;3.656;2024-01-15T10:16:22;4.30;99.90
27544;DHT22;17996;51.056;3.656;2024-01-15T10:18:49;4.30;99.90
27544;DHT22;17996;51.056;3.656;2024-01-15T10:21:15;4.40;99.90
27544;DHT22;17996;51.056;3.656;2024-01-15T10:23:42;4.60;99.90
27544;DHT22;17996;51.056;3.656;2024-01-15T10:26:08;4.60;99.90
27544;DHT22;17996;51.056;3.656;2024-01-15T10:28:33;4.80;99.90
27544;DHT22;17996;51.056;3.656;2024-01-15T10:31:00;4.80;99.90
27544;DHT22;17996;51.056;3.656;2024-01-15T10:33:26;4.90;99.90
27544;DHT22;17996;51.056;3.656;2024-01-15T10:35:56;4.90;99.90
27544;DHT22;17996;51.056;3.656;2024-01-15T10:38:24;4.80;99.90
27544;DHT22;17996;51.056;3.656;2024-01-15T10:40:53;4.80;99.90
27544;DHT22;17996;51.056;3.656;2024-01-15T10:43:20;4.80;99.90
27544;DHT22;17996;51.056;3.656;2024-01-15T10:45:47;4.80;99.90
27544;DHT22;17996;51.056;3.656;2024-01-15T10:48:18;4.70;99.90
27544;DHT22;17996;51.056;3.656;2024-01-15T10:50:46;4.60;99.90
27544;DHT22;17996;51.056;3.656;2024-01-15T10:53:16;4.60;99.90
27544;DHT22;17996;51.056;3.656;2024-01-15T10:55:43;4.60;99.90
27544;DHT22;17996;51.056;3.656;2024-01-15T10:58:11;4.60;99.90
27544;DHT22;17996;51.056;3.656;2024-01-15T11:00:38;4.70;99.90
27544;DHT22;17996;51.056;3.656;2024-01-15T11:03:05;4.70;99.90
27544;DHT22;17996;51.056;3.656;2024-01-15T11:05:37;4.70;99.90
27544;DHT22;17996;51.056;3.656;2024-01-15T11:08:06;4.80;99.90
27544;DHT22;17996;51.056;3.656;2024-01-15T11:10:44;4.90;99.90
27544;DHT22;17996;51.056;3.656;2024-01-15T11:21:22;4.90;99.90
27544;DHT22;17996;51.056;3.656;2024-01-15T11:23:54;4.80;99.90
27544;DHT22;17996;51.056;3.656;2024-01-15T11:26:31;4.90;99.90
27544;DHT22;17996;51.056;3.656;2024-01-15T11:28:59;4.90;99.90
27544;DHT22;17996;51.056;3.656;2024-01-15T11:32:14;4.80;99.90
27544;DHT22;17996;51.056;3.656;2024-01-15T11:34:15;4.70;99.90
27544;DHT22;17996;51.056;3.656;2024-01-15T11:39:45;4.60;99.90
27544;DHT22;17996;51.056;3.656;2024-01-15T11:42:13;4.60;99.90
27544;DHT22;17996;51.056;3.656;2024-01-15T11:44:41;4.70;99.90
27544;DHT22;17996;51.056;3.656;2024-01-15T11:47:09;4.70;99.90
27544;DHT22;17996;51.056;3.656;2024-01-15T11:52:22;4.80;99.90
27544;DHT22;17996;51.056;3.656;2024-01-15T11:57:50;4.90;99.90
27544;DHT22;17996;51.056;3.656;2024-01-15T12:00:16;5.00;99.90
27544;DHT22;17996;51.056;3.656;2024-01-15T12:02:44;5.00;99.90
27544;DHT22;17996;51.056;3.656;2024-01-15T12:05:11;5.00;99.90
27544;DHT22;17996;51.056;3.656;2024-01-15T12:07:39;5.10;99.90
27544;DHT22;17996;51.056;3.656;2024-01-15T12:10:21;5.10;99.90
27544;DHT22;17996;51.056;3.656;2024-01-15T12:12:54;5.10;99.90
27544;DHT22;17996;51.056;3.656;2024-01-15T12:15:22;5.10;99.90
27544;DHT22;17996;51.056;3.656;2024-01-15T12:17:48;5.10;99.90
27544;DHT22;17996;51.056;3.656;2024-01-15T12:20:15;5.20;99.90
27544;DHT22;17996;51.056;3.656;2024-01-15T12:22:42;5.30;99.90
27544;DHT22;17996;51.056;3.656;2024-01-15T12:25:08;5.30;99.90
27544;DHT22;17996;51.056;3.656;2024-01-15T12:27:34;5.30;99.90
27544;DHT22;17996;51.056;3.656;2024-01-15T12:30:00;5.20;99.90
27544;DHT22;17996;51.056;3.656;2024-01-15T12:32:26;5.20;99.90
27544;DHT22;17996;51.056;3.656;2024-01-15T12:34:52;5.20;99.90
27544;DHT22;17996;51.056;3.656;2024-01-15T12:37:18;5.20;99.90
27544;DHT22;17996;51.056;3.656;2024-01-15T12:39:45;5.10;99.90
27544;DHT22;17996;51.056;3.656;2024-01-15T12:42:11;5.00;99.90
27544;DHT22;17996;51.056;3.656;2024-01-15T12:44:39;4.90;99.90
27544;DHT22;17996;51.056;3.656;2024-01-15T12:47:06;4.90;99.90
27544;DHT22;17996;51.056;3.656;2024-01-15T12:49:33;4.90;99.90
27544;DHT22;17996;51.056;3.656;2024-01-15T12:54:33;5.00;99.90
27544;DHT22;17996;51.056;3.656;2024-01-15T12:56:59;5.00;99.90
27544;DHT22;17996;51.056;3.656;2024-01-15T12:59:26;5.00;99.90
27544;DHT22;17996;51.056;3.656;2024-01-15T13:01:53;5.20;99.90
27544;DHT22;17996;51.056;3.656;2024-01-15T13:04:25;5.20;99.90
27544;DHT22;17996;51.056;3.656;2024-01-15T13:06:51;5.30;99.90
27544;DHT22;17996;51.056;3.656;2024-01-15T13:09:20;5.30;99.90
27544;DHT22;17996;51.056;3.656;2024-01-15T13:11:45;5.20;99.90
27544;DHT22;17996;51.056;3.656;2024-01-15T13:14:14;5.30;99.90
27544;DHT22;17996;51.056;3.656;2024-01-15T13:16:41;5.20;99.90
27544;DHT22;17996;51.056;3.656;2024-01-15T13:19:14;5.20;99.90
27544;DHT22;17996;51.056;3.656;2024-01-15T13:21:42;5.30;99.90
27544;DHT22;17996;51.056;3.656;2024-01-15T13:24:10;5.30;99.90
27544;DHT22;17996;51.056;3.656;2024-01-15T13:26:39;5.20;99.90
27544;DHT22;17996;51.056;3.656;2024-01-15T13:29:05;5.20;99.90
27544;DHT22;17996;51.056;3.656;2024-01-15T13:31:34;5.20;99.90
27544;DHT22;17996;51.056;3.656;2024-01-15T13:34:02;5.10;99.90
27544;DHT22;17996;51.056;3.656;2024-01-15T13:36:31;5.10;99.90
27544;DHT22;17996;51.056;3.656;2024-01-15T13:39:00;4.90;99.90
27544;DHT22;17996;51.056;3.656;2024-01-15T13:41:29;4.90;99.90
27544;DHT22;17996;51.056;3.656;2024-01-15T13:43:56;4.90;99.90
27544;DHT22;17996;51.056;3.656;2024-01-15T13:46:24;4.80;99.90
27544;DHT22;17996;51.056;3.656;2024-01-15T13:48:52;4.80;99.90
27544;DHT22;17996;51.056;3.656;2024-01-15T13:51:19;4.90;99.90
27544;DHT22;17996;51.056;3.656;2024-01-15T13:53:51;4.90;99.90
27544;DHT22;17996;51.056;3.656;2024-01-15T13:56:21;4.80;99.90
27544;DHT22;17996;51.056;3.656;2024-01-15T13:58:47;4.80;99.90
27544;DHT22;17996;51.056;3.656;2024-01-15T14:01:16;4.80;99.90
27544;DHT22;17996;51.056;3.656;2024-01-15T14:03:48;4.70;99.90
27544;DHT22;17996;51.056;3.656;2024-01-15T14:06:19;4.70;99.90
27544;DHT22;17996;51.056;3.656;2024-01-15T14:08:48;4.70;99.90
27544;DHT22;17996;51.056;3.656;2024-01-15T14:11:20;4.70;99.90
27544;DHT22;17996;51.056;3.656;2024-01-15T14:13:48;4.90;99.90
27544;DHT22;17996;51.056;3.656;2024-01-15T14:16:14;5.00;99.90
27544;DHT22;17996;51.056;3.656;2024-01-15T14:18:42;5.10;99.90
27544;DHT22;17996;51.056;3.656;2024-01-15T14:21:08;5.10;99.90
27544;DHT22;17996;51.056;3.656;2024-01-15T14:23:35;5.20;99.90
27544;DHT22;17996;51.056;3.656;2024-01-15T14:26:01;5.20;99.90
27544;DHT22;17996;51.056;3.656;2024-01-15T14:28:26;5.20;99.90
27544;DHT22;17996;51.056;3.656;2024-01-15T14:30:53;5.20;99.90
27544;DHT22;17996;51.056;3.656;2024-01-15T14:33:20;5.20;99.90
27544;DHT22;17996;51.056;3.656;2024-01-15T14:35:49;5.20;99.90
27544;DHT22;17996;51.056;3.656;2024-01-15T14:38:15;5.20;99.90
27544;DHT22;17996;51.056;3.656;2024-01-15T14:40:41;5.10;99.90
27544;DHT22;17996;51.056;3.656;2024-01-15T14:43:08;5.10;99.90
27544;DHT22;17996;51.056;3.656;2024-01-15T14:45:35;5.00;99.90
27544;DHT22;17996;51.056;3.656;2024-01-15T14:48:01;5.10;99.90
27544;DHT22;17996;51.056;3.656;2024-01-15T14:50:28;5.20;99.90
27544;DHT22;17996;51.056;3.656;2024-01-15T14:52:54;5.20;99.90
27544;DHT22;17996;51.056;3.656;2024-01-15T14:55:23;5.30;99.90
27544;DHT22;17996;51.056;3.656;2024-01-15T14:57:49;5.20;99.90
27544;DHT22;17996;51.056;3.656;2024-01-15T15:00:17;4.90;99.90
27544;DHT22;17996;51.056;3.656;2024-01-15T15:02:43;4.70;99.90
27544;DHT22;17996;51.056;3.656;2024-01-15T15:05:09;4.50;99.90
27544;DHT22;17996;51.056;3.656;2024-01-15T15:07:36;4.30;99.90
27544;DHT22;17996;51.056;3.656;2024-01-15T15:10:02;4.20;99.90
27544;DHT22;17996;51.056;3.656;2024-01-15T15:12:30;4.20;99.90
27544;DHT22;17996;51.056;3.656;2024-01-15T15:14:56;4.20;99.90
27544;DHT22;17996;51.056;3.656;2024-01-15T15:17:22;4.30;99.90
27544;DHT22;17996;51.056;3.656;2024-01-15T15:19:48;4.30;99.90
27544;DHT22;17996;51.056;3.656;2024-01-15T15:22:16;4.30;99.90
27544;DHT22;17996;51.056;3.656;2024-01-15T15:24:44;4.40;99.90
27544;DHT22;17996;51.056;3.656;2024-01-15T15:27:10;4.40;99.90
27544;DHT22;17996;51.056;3.656;2024-01-15T15:29:39;4.40;99.90
27544;DHT22;17996;51.056;3.656;2024-01-15T15:32:05;4.40;99.90
27544;DHT22;17996;51.056;3.656;2024-01-15T15:34:32;4.40;99.90
27544;DHT22;17996;51.056;3.656;2024-01-15T15:36:58;4.40;99.90
27544;DHT22;17996;51.056;3.656;2024-01-15T15:39:24;4.40;99.90
27544;DHT22;17996;51.056;3.656;2024-01-15T15:41:53;4.30;99.90
27544;DHT22;17996;51.056;3.656;2024-01-15T15:44:20;4.30;99.90
27544;DHT22;17996;51.056;3.656;2024-01-15T15:46:49;4.20;99.90
27544;DHT22;17996;51.056;3.656;2024-01-15T15:49:15;4.20;99.90
27544;DHT22;17996;51.056;3.656;2024-01-15T15:51:41;4.10;99.90
27544;DHT22;17996;51.056;3.656;2024-01-15T15:54:08;4.10;99.90
27544;DHT22;17996;51.056;3.656;2024-01-15T15:56:36;4.10;99.90
27544;DHT22;17996;51.056;3.656;2024-01-15T15:59:05;4.10;99.90
27544;DHT22;17996;51.056;3.656;2024-01-15T16:01:33;4.00;99.90